createdAt,value
2019-02-21T00:00:48.299Z,13.53
2019-02-21T00:03:14.220Z,12.87
2019-02-21T00:05:40.028Z,13.07
2019-02-21T00:08:05.798Z,11.83
2019-02-21T00:10:31.569Z,10.93
2019-02-21T00:12:57.442Z,12.13
2019-02-21T00:15:23.201Z,11.53
2019-02-21T00:17:48.977Z,10.73
2019-02-21T00:20:14.734Z,10.87
2019-02-21T00:22:40.521Z,9.63
2019-02-21T00:25:06.269Z,9.87
2019-02-21T00:27:32.033Z,9.57
2019-02-21T00:29:57.795Z,9.07
2019-02-21T00:32:23.541Z,8.83
2019-02-21T00:34:49.311Z,8.17
2019-02-21T00:37:15.065Z,9.07
2019-02-21T00:39:40.856Z,8.73
2019-02-21T00:42:06.624Z,8.07
2019-02-21T00:44:32.396Z,7.40
2019-02-21T00:46:58.129Z,7.20
2019-02-21T00:49:23.909Z,7.87
2019-02-21T00:51:49.677Z,7.37
2019-02-21T00:54:15.439Z,7.23
2019-02-21T00:56:41.208Z,7.53
2019-02-21T00:59:06.965Z,7.30
2019-02-21T01:01:32.713Z,7.83
2019-02-21T01:03:58.480Z,7.27
2019-02-21T01:06:24.229Z,8.23
2019-02-21T01:08:50.010Z,7.53
2019-02-21T01:11:15.870Z,8.80
2019-02-21T01:13:41.635Z,9.13
2019-02-21T01:16:07.396Z,8.80
2019-02-21T01:18:33.166Z,8.93
2019-02-21T01:20:58.928Z,8.87
2019-02-21T01:23:24.672Z,9.03
2019-02-21T01:25:50.430Z,9.67
2019-02-21T01:28:16.177Z,9.87
2019-02-21T01:30:41.950Z,9.53
2019-02-21T01:33:07.712Z,10.43
2019-02-21T01:35:33.478Z,10.67
2019-02-21T01:37:59.226Z,11.00
2019-02-21T01:40:24.986Z,10.60
2019-02-21T01:42:50.740Z,10.90
2019-02-21T01:45:16.503Z,11.67
2019-02-21T01:47:42.250Z,11.20
2019-02-21T01:50:08.029Z,11.03
2019-02-21T01:52:33.818Z,10.90
2019-02-21T01:54:59.586Z,10.57
2019-02-21T01:57:25.340Z,11.77
2019-02-21T01:59:51.096Z,11.40
2019-02-21T02:02:16.864Z,11.43
2019-02-21T02:04:42.633Z,10.87
2019-02-21T02:07:08.396Z,10.67
2019-02-21T02:09:34.174Z,12.77
2019-02-21T02:11:59.928Z,12.80
2019-02-21T02:14:25.691Z,12.13
2019-02-21T02:16:51.462Z,12.30
2019-02-21T02:19:17.302Z,11.83
2019-02-21T02:21:43.107Z,11.47
2019-02-21T02:24:08.854Z,13.77
2019-02-21T02:26:34.617Z,13.87
2019-02-21T02:29:00.375Z,13.23
2019-02-21T02:31:26.147Z,14.10
2019-02-21T02:33:51.926Z,13.43
2019-02-21T02:36:17.763Z,14.20
2019-02-21T02:38:43.502Z,14.23
2019-02-21T02:41:09.282Z,15.50
2019-02-21T02:43:35.032Z,15.47
2019-02-21T02:46:00.812Z,15.80
2019-02-21T02:48:26.566Z,16.00
2019-02-21T02:50:52.370Z,15.40
2019-02-21T02:53:18.141Z,16.23
2019-02-21T02:55:43.929Z,16.83
2019-02-21T02:58:09.699Z,16.30
2019-02-21T03:00:35.470Z,16.90
2019-02-21T03:03:01.229Z,16.70
2019-02-21T03:05:26.994Z,17.40
2019-02-21T03:07:52.748Z,17.67
2019-02-21T03:10:18.503Z,17.43
2019-02-21T03:12:44.250Z,17.97
2019-02-21T03:15:10.012Z,18.63
2019-02-21T03:17:35.762Z,18.63
2019-02-21T03:20:01.518Z,19.17
2019-02-21T03:22:27.285Z,20.00
2019-02-21T03:24:53.044Z,19.80
2019-02-21T03:27:18.806Z,19.90
2019-02-21T03:29:44.554Z,19.97
2019-02-21T03:32:10.384Z,20.37
2019-02-21T03:34:36.083Z,21.20
2019-02-21T03:37:01.875Z,23.10
2019-02-21T03:39:27.635Z,21.60
2019-02-21T03:41:53.424Z,21.50
2019-02-21T03:44:19.174Z,22.20
2019-02-21T03:46:44.947Z,22.47
2019-02-21T03:49:10.718Z,22.80
2019-02-21T03:51:36.495Z,23.90
2019-02-21T03:54:02.246Z,23.20
2019-02-21T03:56:28.012Z,23.03
2019-02-21T03:58:53.779Z,22.53
2019-02-21T04:01:19.673Z,23.63
2019-02-21T04:03:45.418Z,22.80
2019-02-21T04:06:11.203Z,22.90
2019-02-21T04:08:36.962Z,22.73
2019-02-21T04:11:02.726Z,23.50
2019-02-21T04:13:28.475Z,24.57
2019-02-21T04:15:54.342Z,23.17
2019-02-21T04:18:20.102Z,23.50
2019-02-21T04:20:45.841Z,24.73
2019-02-21T04:23:11.606Z,23.43
2019-02-21T04:25:37.350Z,23.13
2019-02-21T04:28:03.121Z,25.30
2019-02-21T04:30:28.875Z,23.97
2019-02-21T04:32:54.642Z,25.07
2019-02-21T04:35:20.390Z,24.43
2019-02-21T04:37:46.150Z,24.63
2019-02-21T04:40:11.921Z,26.67
2019-02-21T04:42:38.185Z,25.80
2019-02-21T04:45:04.838Z,26.40
2019-02-21T04:47:30.683Z,27.77
2019-02-21T04:49:56.456Z,26.43
2019-02-21T04:52:22.233Z,27.47
2019-02-21T04:54:47.993Z,26.20
2019-02-21T04:57:13.758Z,27.43
2019-02-21T04:59:39.513Z,27.87
2019-02-21T05:02:05.376Z,26.93
2019-02-21T05:04:31.128Z,27.50
2019-02-21T05:06:56.997Z,28.73
2019-02-21T05:09:22.735Z,30.13
2019-02-21T05:11:48.497Z,28.63
2019-02-21T05:14:14.246Z,28.03
2019-02-21T05:16:40.036Z,28.63
2019-02-21T05:19:05.772Z,27.87
2019-02-21T05:21:31.527Z,28.40
2019-02-21T05:23:57.291Z,27.33
2019-02-21T05:26:27.713Z,28.70
2019-02-21T05:28:53.479Z,27.90
2019-02-21T05:31:32.980Z,28.40
2019-02-21T05:34:00.681Z,28.73
2019-02-21T05:36:28.297Z,28.07
2019-02-21T05:38:55.972Z,29.53
2019-02-21T05:41:29.138Z,28.53
2019-02-21T05:44:02.611Z,28.23
2019-02-21T05:46:30.238Z,28.47
2019-02-21T05:48:57.899Z,27.90
2019-02-21T05:51:25.557Z,28.03
2019-02-21T05:53:55.774Z,28.03
2019-02-21T05:56:26.259Z,27.73
2019-02-21T05:58:53.997Z,27.77
2019-02-21T06:01:27.177Z,27.83
2019-02-21T06:03:57.377Z,26.57
2019-02-21T06:06:27.558Z,29.37
2019-02-21T06:08:57.989Z,27.50
2019-02-21T06:11:25.639Z,28.13
2019-02-21T06:13:58.842Z,28.00
2019-02-21T06:16:33.055Z,28.80
2019-02-21T06:19:03.324Z,28.13
2019-02-21T06:21:36.619Z,29.30
2019-02-21T06:24:06.805Z,27.20
2019-02-21T06:26:34.457Z,27.57
2019-02-21T06:29:04.626Z,28.40
2019-02-21T06:31:30.384Z,27.90
2019-02-21T06:33:56.140Z,27.60
2019-02-21T06:36:21.884Z,27.63
2019-02-21T06:38:47.649Z,27.60
2019-02-21T06:41:13.385Z,28.13
2019-02-21T06:43:39.130Z,26.53
2019-02-21T06:46:04.892Z,27.73
2019-02-21T06:48:30.646Z,27.00
2019-02-21T06:50:56.397Z,27.20
2019-02-21T06:53:22.166Z,28.17
2019-02-21T06:55:47.936Z,27.07
2019-02-21T06:58:13.687Z,26.37
2019-02-21T07:00:39.443Z,26.67
2019-02-21T07:03:15.126Z,27.03
2019-02-21T07:05:32.898Z,26.13
2019-02-21T07:07:58.653Z,27.93
2019-02-21T07:10:24.419Z,27.37
2019-02-21T07:12:50.162Z,28.13
2019-02-21T07:15:15.933Z,28.00
2019-02-21T07:17:48.783Z,27.80
2019-02-21T07:20:09.333Z,27.57
2019-02-21T07:22:35.081Z,28.60
2019-02-21T07:25:02.735Z,26.30
2019-02-21T07:27:28.495Z,29.87
2019-02-21T07:29:54.247Z,28.93
2019-02-21T07:32:19.991Z,27.20
2019-02-21T07:34:45.753Z,28.13
2019-02-21T07:37:18.611Z,27.40
2019-02-21T07:39:39.160Z,27.57
2019-02-21T07:42:04.917Z,28.77
2019-02-21T07:44:30.667Z,27.53
2019-02-21T07:46:56.431Z,28.83
2019-02-21T07:49:22.174Z,28.73
2019-02-21T07:51:47.952Z,27.57
2019-02-21T07:54:13.699Z,30.03
2019-02-21T07:56:42.310Z,28.93
2019-02-21T07:59:07.161Z,29.47
2019-02-21T08:01:32.884Z,30.77
2019-02-21T08:03:58.635Z,30.40
2019-02-21T08:06:24.387Z,29.77
2019-02-21T08:08:50.138Z,30.77
2019-02-21T08:11:15.902Z,30.50
2019-02-21T08:13:41.654Z,29.20
2019-02-21T08:16:07.419Z,29.83
2019-02-21T08:18:33.187Z,29.27
2019-02-21T08:20:58.952Z,29.40
2019-02-21T08:23:24.707Z,30.30
2019-02-21T08:25:50.451Z,30.33
2019-02-21T08:28:16.213Z,29.93
2019-02-21T08:30:41.959Z,29.00
2019-02-21T08:33:09.687Z,30.00
2019-02-21T08:35:35.444Z,31.40
2019-02-21T08:38:01.205Z,30.30
2019-02-21T08:40:26.978Z,27.93
2019-02-21T08:42:52.718Z,30.00
2019-02-21T08:45:18.457Z,29.80
2019-02-21T08:47:44.220Z,28.17
2019-02-21T08:50:09.975Z,29.47
2019-02-21T08:52:35.778Z,27.93
2019-02-21T08:55:01.505Z,29.97
2019-02-21T08:57:27.253Z,27.20
2019-02-21T08:59:53.002Z,27.40
2019-02-21T09:02:18.760Z,29.33
2019-02-21T09:04:44.506Z,26.83
2019-02-21T09:07:10.268Z,27.93
2019-02-21T09:09:36.021Z,27.27
2019-02-21T09:12:02.198Z,27.20
2019-02-21T09:14:27.935Z,27.73
2019-02-21T09:16:53.689Z,27.37
2019-02-21T09:19:19.445Z,26.67
2019-02-21T09:21:45.187Z,26.80
2019-02-21T09:24:13.633Z,28.03
2019-02-21T09:26:38.608Z,25.77
2019-02-21T09:29:04.370Z,28.03
2019-02-21T09:31:30.118Z,24.93
2019-02-21T09:33:56.079Z,25.87
2019-02-21T09:36:21.821Z,26.13
2019-02-21T09:38:47.656Z,26.90
2019-02-21T09:41:13.435Z,25.43
2019-02-21T09:43:39.197Z,25.10
2019-02-21T09:46:04.942Z,26.93
2019-02-21T09:48:30.702Z,25.83
2019-02-21T09:50:56.445Z,27.17
2019-02-21T09:53:22.230Z,26.73
2019-02-21T09:55:50.286Z,28.03
2019-02-21T09:58:15.654Z,27.97
2019-02-21T10:00:41.392Z,27.20
2019-02-21T10:03:07.161Z,27.33
2019-02-21T10:05:32.918Z,27.47
2019-02-21T10:07:58.660Z,27.23
2019-02-21T10:10:24.413Z,25.37
2019-02-21T10:12:50.170Z,28.10
2019-02-21T10:15:15.926Z,28.00
2019-02-21T10:17:41.676Z,29.30
2019-02-21T10:20:09.734Z,28.23
2019-02-21T10:22:35.588Z,28.33
2019-02-21T10:25:01.357Z,26.60
2019-02-21T10:27:27.106Z,28.03
2019-02-21T10:29:52.862Z,26.97
2019-02-21T10:32:18.609Z,27.27
2019-02-21T10:34:44.370Z,26.93
2019-02-21T10:37:10.116Z,26.23
2019-02-21T10:39:35.878Z,25.17
2019-02-21T10:42:01.626Z,27.40
2019-02-21T10:44:27.399Z,27.83
2019-02-21T10:46:53.150Z,26.27
2019-02-21T10:49:18.909Z,25.87
2019-02-21T10:51:44.661Z,25.23
2019-02-21T10:54:10.433Z,25.80
2019-02-21T10:56:36.188Z,24.50
2019-02-21T10:59:01.972Z,26.30
2019-02-21T11:01:27.722Z,25.23
2019-02-21T11:03:53.467Z,27.10
2019-02-21T11:06:19.230Z,25.57
2019-02-21T11:08:44.976Z,24.97
2019-02-21T11:11:10.744Z,24.10
2019-02-21T11:13:36.485Z,26.27
2019-02-21T11:16:02.247Z,25.37
2019-02-21T11:18:27.995Z,26.33
2019-02-21T11:20:53.753Z,25.70
2019-02-21T11:23:19.496Z,26.67
2019-02-21T11:25:45.252Z,25.73
2019-02-21T11:28:11.006Z,23.00
2019-02-21T11:30:36.755Z,23.50
2019-02-21T11:33:02.506Z,25.43
2019-02-21T11:35:28.266Z,26.57
2019-02-21T11:37:54.111Z,27.13
2019-02-21T11:40:19.867Z,26.00
2019-02-21T11:42:45.710Z,27.53
2019-02-21T11:45:15.435Z,28.47
2019-02-21T11:47:41.181Z,26.93
2019-02-21T11:50:17.156Z,26.53
2019-02-21T11:52:42.934Z,25.67
2019-02-21T11:55:10.936Z,27.97
2019-02-21T11:57:36.704Z,25.97
2019-02-21T12:00:09.013Z,27.97
2019-02-21T12:02:38.870Z,28.90
2019-02-21T12:05:03.153Z,28.80
2019-02-21T12:07:28.920Z,28.03
2019-02-21T12:09:54.666Z,27.63
2019-02-21T12:12:20.422Z,27.33
2019-02-21T12:14:46.174Z,28.13
2019-02-21T12:17:11.929Z,27.83
2019-02-21T12:19:37.673Z,28.30
2019-02-21T12:22:03.440Z,26.50
2019-02-21T12:24:29.187Z,27.83
2019-02-21T12:26:54.949Z,25.63
2019-02-21T12:29:20.695Z,26.73
2019-02-21T12:31:46.534Z,29.47
2019-02-21T12:34:12.301Z,28.30
2019-02-21T12:36:38.058Z,29.70
2019-02-21T12:39:04.706Z,25.93
2019-02-21T12:41:30.487Z,27.17
2019-02-21T12:43:56.232Z,28.33
2019-02-21T12:46:21.981Z,27.70
2019-02-21T12:48:47.740Z,29.90
2019-02-21T12:51:13.479Z,27.97
2019-02-21T12:53:39.255Z,29.30
2019-02-21T12:56:05.016Z,28.77
2019-02-21T12:58:30.777Z,29.37
2019-02-21T13:00:56.527Z,27.73
2019-02-21T13:03:22.283Z,30.00
2019-02-21T13:05:48.031Z,28.30
2019-02-21T13:08:13.786Z,29.40
2019-02-21T13:10:39.548Z,25.47
2019-02-21T13:13:05.300Z,27.97
2019-02-21T13:15:31.051Z,27.07
2019-02-21T13:17:56.817Z,28.77
2019-02-21T13:20:22.551Z,26.23
2019-02-21T13:22:48.314Z,27.20
2019-02-21T13:25:15.267Z,26.73
2019-02-21T13:27:41.028Z,28.83
2019-02-21T13:30:09.185Z,28.47
2019-02-21T13:32:34.938Z,31.90
2019-02-21T13:35:00.693Z,31.13
2019-02-21T13:37:29.112Z,31.60
2019-02-21T13:39:54.106Z,27.97
2019-02-21T13:42:19.854Z,27.87
2019-02-21T13:44:45.614Z,28.10
2019-02-21T13:47:11.356Z,30.07
2019-02-21T13:49:37.122Z,31.73
2019-02-21T13:52:02.871Z,33.40
2019-02-21T13:54:28.660Z,32.07
2019-02-21T13:56:54.398Z,33.83
2019-02-21T13:59:20.174Z,34.57
2019-02-21T14:01:45.967Z,34.27
2019-02-21T14:04:11.696Z,33.93
2019-02-21T14:06:37.442Z,34.27
2019-02-21T14:09:04.305Z,31.47
2019-02-21T14:11:30.786Z,31.60
2019-02-21T14:13:56.632Z,30.30
2019-02-21T14:16:22.378Z,29.17
2019-02-21T14:18:48.147Z,26.37
2019-02-21T14:21:13.885Z,27.30
2019-02-21T14:23:39.653Z,29.33
2019-02-21T14:26:05.397Z,27.77
2019-02-21T14:28:31.147Z,28.73
2019-02-21T14:30:56.907Z,26.27
2019-02-21T14:33:22.656Z,27.00
2019-02-21T14:35:48.438Z,27.20
2019-02-21T14:38:14.176Z,25.40
2019-02-21T14:40:39.935Z,24.77
2019-02-21T14:43:05.844Z,24.90
2019-02-21T14:45:31.605Z,27.97
2019-02-21T14:47:57.349Z,24.40
2019-02-21T14:50:23.110Z,27.57
2019-02-21T14:52:48.875Z,24.10
2019-02-21T14:55:16.045Z,26.03
2019-02-21T14:57:41.797Z,25.90
2019-02-21T15:00:13.897Z,26.30
2019-02-21T15:02:39.654Z,25.47
2019-02-21T15:05:05.650Z,24.90
2019-02-21T15:07:31.414Z,24.60
2019-02-21T15:09:57.199Z,24.63
2019-02-21T15:12:22.968Z,25.37
2019-02-21T15:14:48.744Z,24.03
2019-02-21T15:17:14.502Z,26.27
2019-02-21T15:19:40.248Z,24.03
2019-02-21T15:22:06.074Z,25.33
2019-02-21T15:24:31.827Z,25.50
2019-02-21T15:27:08.170Z,26.57
2019-02-21T15:29:25.248Z,25.50
2019-02-21T15:31:51.015Z,27.53
2019-02-21T15:34:16.757Z,26.13
2019-02-21T15:36:42.540Z,24.13
2019-02-21T15:39:08.295Z,25.20
2019-02-21T15:41:34.043Z,22.73
2019-02-21T15:43:59.814Z,22.60
2019-02-21T15:46:25.590Z,23.70
2019-02-21T15:48:51.338Z,24.73
2019-02-21T15:51:17.092Z,24.17
2019-02-21T15:53:42.864Z,23.17
2019-02-21T15:56:08.635Z,25.27
2019-02-21T15:58:34.383Z,23.47
2019-02-21T16:01:00.165Z,22.10
2019-02-21T16:03:25.917Z,22.63
2019-02-21T16:05:51.660Z,23.90
2019-02-21T16:08:17.423Z,23.57
2019-02-21T16:10:43.166Z,22.30
2019-02-21T16:13:09.030Z,20.93
2019-02-21T16:15:35.163Z,22.77
2019-02-21T16:18:01.028Z,23.43
2019-02-21T16:20:26.807Z,23.50
2019-02-21T16:22:52.542Z,25.07
2019-02-21T16:25:23.854Z,23.87
2019-02-21T16:27:49.621Z,23.93
2019-02-21T16:30:15.381Z,24.83
2019-02-21T16:32:41.149Z,24.23
2019-02-21T16:35:09.498Z,25.60
2019-02-21T16:37:35.265Z,24.60
2019-02-21T16:40:01.331Z,24.90
2019-02-21T16:42:27.093Z,25.70
2019-02-21T16:44:52.851Z,24.83
2019-02-21T16:47:18.641Z,27.53
2019-02-21T16:49:44.386Z,27.27
2019-02-21T16:52:10.160Z,27.77
2019-02-21T16:54:35.917Z,28.73
2019-02-21T16:57:01.688Z,26.90
2019-02-21T16:59:27.447Z,28.33
2019-02-21T17:01:53.197Z,29.80
2019-02-21T17:04:18.950Z,28.97
2019-02-21T17:06:44.696Z,28.87
2019-02-21T17:09:10.456Z,28.13
2019-02-21T17:11:36.203Z,27.60
2019-02-21T17:14:02.067Z,29.47
2019-02-21T17:16:27.814Z,28.83
2019-02-21T17:18:55.972Z,27.87
2019-02-21T17:21:21.251Z,30.03
2019-02-21T17:23:46.991Z,28.27
2019-02-21T17:26:12.736Z,31.50
2019-02-21T17:28:38.504Z,30.67
2019-02-21T17:31:04.246Z,32.00
2019-02-21T17:33:30.010Z,34.37
2019-02-21T17:35:55.765Z,32.97
2019-02-21T17:38:21.532Z,32.87
2019-02-21T17:40:47.275Z,30.77
2019-02-21T17:43:13.033Z,31.20
2019-02-21T17:45:38.775Z,32.57
2019-02-21T17:48:04.541Z,33.37
2019-02-21T17:50:30.353Z,34.83
2019-02-21T17:52:56.055Z,34.60
2019-02-21T17:55:21.814Z,37.83
2019-02-21T17:57:47.664Z,38.67
2019-02-21T18:00:17.622Z,38.73
2019-02-21T18:02:43.394Z,38.53
2019-02-21T18:05:09.459Z,36.83
2019-02-21T18:07:36.685Z,43.47
2019-02-21T18:10:05.384Z,40.50
2019-02-21T18:12:31.138Z,41.47
2019-02-21T18:14:56.907Z,39.33
2019-02-21T18:17:22.660Z,40.97
2019-02-21T18:19:48.514Z,37.87
2019-02-21T18:22:14.266Z,40.20
2019-02-21T18:24:40.034Z,40.77
2019-02-21T18:27:05.782Z,44.10
2019-02-21T18:29:31.552Z,42.87
2019-02-21T18:31:57.297Z,42.90
2019-02-21T18:34:23.061Z,43.10
2019-02-21T18:36:48.799Z,42.73
2019-02-21T18:39:15.163Z,43.27
2019-02-21T18:41:40.918Z,43.33
2019-02-21T18:44:06.662Z,43.90
2019-02-21T18:46:32.422Z,47.87
2019-02-21T18:48:58.164Z,47.33
2019-02-21T18:51:23.931Z,51.97
2019-02-21T18:53:49.703Z,43.83
2019-02-21T18:56:15.458Z,50.67
2019-02-21T18:58:41.205Z,52.47
2019-02-21T19:01:06.961Z,50.60
2019-02-21T19:03:32.704Z,48.63
2019-02-21T19:05:58.468Z,51.03
2019-02-21T19:08:24.216Z,52.63
2019-02-21T19:10:49.984Z,50.93
2019-02-21T19:13:15.734Z,50.13
2019-02-21T19:15:41.707Z,50.00
2019-02-21T19:18:07.465Z,54.20
2019-02-21T19:20:33.334Z,52.17
2019-02-21T19:22:59.088Z,54.30
2019-02-21T19:25:24.846Z,55.93
2019-02-21T19:27:50.593Z,52.50
2019-02-21T19:30:25.536Z,53.83
2019-02-21T19:32:50.698Z,52.83
2019-02-21T19:35:16.465Z,52.50
2019-02-21T19:37:42.227Z,55.00
2019-02-21T19:40:08.868Z,57.17
2019-02-21T19:42:34.635Z,53.73
2019-02-21T19:45:00.396Z,56.00
2019-02-21T19:47:26.256Z,53.77
2019-02-21T19:49:52.347Z,52.20
2019-02-21T19:52:18.216Z,51.97
2019-02-21T19:54:44.055Z,49.50
2019-02-21T19:57:09.971Z,52.53
2019-02-21T19:59:35.844Z,52.43
2019-02-21T20:02:01.766Z,56.97
2019-02-21T20:04:27.652Z,50.13
2019-02-21T20:06:53.632Z,53.90
2019-02-21T20:09:19.913Z,46.43
2019-02-21T20:11:45.726Z,50.37
2019-02-21T20:14:11.579Z,48.97
2019-02-21T20:16:37.458Z,50.57
2019-02-21T20:19:03.415Z,48.87
2019-02-21T20:21:29.294Z,50.80
2019-02-21T20:23:55.140Z,55.17
2019-02-21T20:26:21.002Z,55.57
2019-02-21T20:28:46.777Z,52.27
2019-02-21T20:31:12.638Z,51.03
2019-02-21T20:33:38.473Z,49.30
2019-02-21T20:36:04.307Z,51.53
2019-02-21T20:38:32.365Z,52.53
2019-02-21T20:40:57.973Z,56.27
2019-02-21T20:43:23.843Z,54.33
2019-02-21T20:45:52.997Z,59.07
2019-02-21T20:48:17.540Z,54.63
2019-02-21T20:50:43.401Z,53.07
2019-02-21T20:53:09.551Z,53.13
2019-02-21T20:55:43.359Z,54.20
2019-02-21T20:58:03.180Z,55.67
2019-02-21T21:00:29.067Z,57.07
2019-02-21T21:02:54.910Z,54.07
2019-02-21T21:05:21.660Z,57.40
2019-02-21T21:07:48.498Z,58.57
2019-02-21T21:10:16.159Z,56.60
2019-02-21T21:12:42.054Z,54.23
2019-02-21T21:15:09.730Z,57.80
2019-02-21T21:17:35.660Z,61.20
2019-02-21T21:20:01.453Z,59.20
2019-02-21T21:22:27.256Z,56.87
2019-02-21T21:24:53.073Z,58.50
2019-02-21T21:27:18.879Z,61.13
2019-02-21T21:29:44.734Z,61.43
2019-02-21T21:32:10.484Z,60.10
2019-02-21T21:34:36.243Z,58.43
2019-02-21T21:37:01.987Z,57.43
2019-02-21T21:39:27.747Z,52.60
2019-02-21T21:41:53.512Z,56.70
2019-02-21T21:44:19.281Z,54.40
2019-02-21T21:46:45.137Z,58.87
2019-02-21T21:49:10.904Z,59.53
2019-02-21T21:51:36.659Z,64.23
2019-02-21T21:54:02.426Z,71.73
2019-02-21T21:56:28.194Z,69.93
2019-02-21T21:58:53.952Z,65.70
2019-02-21T22:01:19.713Z,67.77
2019-02-21T22:03:45.452Z,69.87
2019-02-21T22:06:11.219Z,77.60
2019-02-21T22:08:36.961Z,83.07
2019-02-21T22:11:02.720Z,79.07
2019-02-21T22:13:28.462Z,78.03
2019-02-21T22:15:54.226Z,77.37
2019-02-21T22:18:19.970Z,88.17
2019-02-21T22:20:45.734Z,79.43
2019-02-21T22:23:11.482Z,86.17
2019-02-21T22:25:37.428Z,79.43
2019-02-21T22:28:03.186Z,84.53
2019-02-21T22:30:28.934Z,80.07
2019-02-21T22:32:54.696Z,85.40
2019-02-21T22:35:20.441Z,86.93
2019-02-21T22:37:46.201Z,82.57
2019-02-21T22:40:20.751Z,84.97
2019-02-21T22:42:46.516Z,86.27
2019-02-21T22:45:12.270Z,94.83
2019-02-21T22:47:38.032Z,84.03
2019-02-21T22:50:10.296Z,88.07
2019-02-21T22:52:36.055Z,84.33
2019-02-21T22:55:09.636Z,85.70
2019-02-21T22:57:31.302Z,89.50
2019-02-21T22:59:57.057Z,89.53
2019-02-21T23:02:23.211Z,86.40
2019-02-21T23:04:55.930Z,87.33
2019-02-21T23:07:25.491Z,88.97
2019-02-21T23:09:51.239Z,77.13
2019-02-21T23:12:17.002Z,84.27
2019-02-21T23:14:42.748Z,80.77
2019-02-21T23:17:08.502Z,79.17
2019-02-21T23:19:34.344Z,71.63
2019-02-21T23:22:00.097Z,76.90
2019-02-21T23:24:25.851Z,63.90
2019-02-21T23:26:53.519Z,64.60
2019-02-21T23:29:19.258Z,60.30
2019-02-21T23:31:44.996Z,61.50
2019-02-21T23:34:18.423Z,62.43
2019-02-21T23:36:44.177Z,58.37
2019-02-21T23:39:09.934Z,57.10
2019-02-21T23:41:35.687Z,56.47
2019-02-21T23:44:01.455Z,51.70
2019-02-21T23:46:27.195Z,49.63
2019-02-21T23:48:52.950Z,49.17
2019-02-21T23:51:18.692Z,39.43
2019-02-21T23:53:44.539Z,40.97
2019-02-21T23:56:10.317Z,42.57
2019-02-21T23:58:36.084Z,43.53
